x

8452944 - Conimicut Light, Ri (cptr1) Weather Station

7:30 - Mon 22nd Dec 2014 All times are EST. -5 hours from GMT.

  • Wind
    8mph, 10mph gusts
  • Sea Temp 43°f
  • Aire Temp 42°f
  • Sea Pressure 1025.8mb
  • 8452944 - Conimicut Light, Ri
  • 8452944 - Conimicut Light, Ri

More Historic Weather Station data

Upgrade to MSW Pro to gain access to the past 30 days of data for over 8000 Wavebouys and Weather Stations around the globe.

Join Pro

Comparision Forecast

View Surf forecast
   
lun 12/22 7:30 8 10 mph 1025.8mb 43f 42f
7:24 8 10 mph 1025.8mb 43f 42f
7:18 8 9 mph 1025.8mb 43f 42f
7:12 7 8 mph 1025.9mb 43f 42f
7:06 7 9 mph 1025.9mb 43f 43f
7:00 10 11 mph 1026mb 43f 43f
6:54 11 13 mph 1025.9mb 43f 43f
6:48 9 10 mph 1026mb 43f 42f
6:42 8 9 mph 1026mb 43f 42f
6:36 8 10 mph 1026mb 43f 42f
6:30 9 10 mph 1025.9mb 43f 42f
6:24 9 10 mph 1025.9mb 43f 42f
6:18 6 10 mph 1026mb 43f 42f
6:12 6 9 mph 1026.1mb 44f 42f
6:06 8 11 mph 1026mb 44f 42f
6:00 10 13 mph 1026mb 44f 42f
5:54 11 13 mph 1025.8mb 44f 42f
5:48 10 13 mph 1025.9mb 44f 42f
5:42 6 8 mph 1026.2mb 44f 42f
5:36 6 7 mph 1026.3mb 44f 42f
5:30 6
mph
1026.2mb 44f 42f
5:24 5 6 mph 1026.3mb 44f 42f
5:18 5 7 mph 1026.3mb 44f 42f
5:12 6 7 mph 1026.3mb 44f 42f
5:06 6
mph
1026.3mb 44f 42f
4:54 5 6 mph 1026.3mb 44f 42f
4:48 3 6 mph 1026.4mb 44f 42f
4:42 6 8 mph 1026.2mb 44f 42f
4:36 8 9 mph 1026.1mb 44f 42f
4:30 7 8 mph 1026mb 43f 42f
4:24 7 8 mph 1026mb 43f 43f
4:18 7 9 mph 1026.1mb 43f 43f
4:12 7 8 mph 1026mb 43f 43f
4:06 7 9 mph 1026mb 43f 43f
4:00 8 9 mph 1026mb 43f 43f
3:54 6 7 mph 1026.2mb 43f 43f
3:48 6 7 mph 1026.2mb 43f 43f
3:42 7 9 mph 1026.1mb 43f 43f
3:36 6 8 mph 1026mb 43f 43f
3:30 7 9 mph 1025.9mb 43f 43f
3:24 7 8 mph 1025.7mb 43f 43f
3:18 8 10 mph 1025.6mb 43f 43f
3:12 9 11 mph 1025.6mb 43f 43f
3:06 8 10 mph 1025.7mb 43f 43f
2:54 9
mph
1025.7mb 43f 42f
2:48 8 9 mph 1025.9mb 43f 42f
2:36 7 9 mph 1025.8mb 43f 42f
2:30 7 11 mph 1025.7mb 43f 42f
2:24 10 11 mph 1025.7mb 43f 42f
2:18 8 13 mph 1025.7mb 43f 43f
2:12 11 14 mph 1025.6mb 43f 42f
2:06 11 13 mph 1025.7mb 43f 43f
2:00 9 11 mph 1025.8mb 43f 43f
1:54 7 10 mph 1025.8mb 43f 43f
1:48 9 10 mph 1025.9mb 43f 42f
1:42 7 8 mph 1026.1mb 43f 42f
1:36 6 9 mph 1026mb 43f 42f
1:30 7 9 mph 1026mb 43f 42f
1:24 8
mph
1026.1mb 43f 42f
1:18 7 8 mph 1026.4mb 43f 42f
1:12 8
mph
1026.7mb 43f 41f
1:06 8 10 mph 1026.9mb 43f 42f
1:00 9 10 mph 1027.1mb 43f 42f
12:54 10 11 mph 1027.2mb 43f 42f
12:48 7 8 mph 1027.3mb 43f 42f
12:42 7 9 mph 1027.3mb 43f 42f
12:36 9 10 mph 1027.2mb 43f 42f
12:30 8
mph
1027.2mb 43f 42f
12:24 8 9 mph 1027.1mb 43f 42f
12:18 9
mph
1027mb 43f 42f
12:12 6 8 mph 1027mb 43f 43f
12:06 7 8 mph 1026.9mb 43f 43f
12:00 5 6 mph 1027.1mb 43f 43f
11:54 3 5 mph 1027mb 43f 44f
11:48 5 6 mph 1026.9mb 43f 43f
11:42 6 8 mph 1027mb 43f 43f
11:36 7
mph
1027mb 43f 43f
11:30 6 8 mph 1027mb 43f 43f
11:24 8 9 mph 1027.1mb 43f 43f
11:18 8 10 mph 1027.1mb 43f 43f
11:12 7 8 mph 1027.2mb 43f 44f
11:06 6 8 mph 1027.3mb 43f 44f
11:00 6 8 mph 1027.6mb 43f 45f
10:54 7 9 mph 1027.6mb 43f 44f
10:48 8 9 mph 1027.7mb 43f 43f
10:42 8 10 mph 1027.9mb 43f 43f
10:36 9 10 mph 1027.9mb 43f 42f
10:30 8 10 mph 1028mb 43f 42f
10:24 8 10 mph 1028.2mb 43f 42f
10:18 8 11 mph 1028.2mb 43f 42f
10:12 7 10 mph 1028.4mb 43f 42f
10:06 8 10 mph 1028.4mb 42f 41f
10:00 9 11 mph 1028.5mb 42f 41f
9:54 6 8 mph 1028.6mb 42f 42f
9:48 7 8 mph 1028.6mb 42f 41f
9:42 6 8 mph 1028.7mb 42f 41f
9:36 7 8 mph 1028.7mb 42f 40f
9:30 8 10 mph 1028.8mb 42f 40f
9:24 8 11 mph 1028.7mb 42f 39f
9:18 8 11 mph 1028.6mb 42f 39f
9:12 9 13 mph 1028.5mb 42f 38f
9:06 10 11 mph 1028.5mb 42f 38f
9:00 9 11 mph 1028.4mb 42f 38f
8:54 9 14 mph 1028.3mb 42f 38f
8:48 10 14 mph 1028.3mb 43f 37f
8:42 10 11 mph 1028.5mb 42f 37f
8:36 9 11 mph 1028.5mb 42f 35f
8:30 9 11 mph 1028.6mb 42f 35f
8:24 8 10 mph 1028.5mb 42f 35f
8:18 8 13 mph 1028.4mb 42f 35f
8:12 7 8 mph 1028.3mb 42f 35f
8:06 6 9 mph 1028.2mb 42f 35f
8:00 6 10 mph 1028.2mb 42f 35f
7:54 9 11 mph 1028.2mb 42f 35f
7:48 8 10 mph 1028.3mb 42f 35f
7:42 8 10 mph 1028.3mb 42f 34f
7:36 8 9 mph 1028.3mb 42f 34f
7:30 6 9 mph 1028.3mb 42f 34f
7:24 7 8 mph 1028.3mb 42f 34f
7:18 6 7 mph 1028.4mb 42f 34f
7:12 6 9 mph 1028.3mb 42f 34f
7:06 8 11 mph 1028.2mb 42f 34f
7:00 9 11 mph 1028.2mb 42f 34f
6:54 9 13 mph 1028.2mb 42f 34f
6:48 10 13 mph 1028.2mb 42f 34f
6:42 10 13 mph 1028.3mb 42f 34f
6:36 10 13 mph 1028.1mb 42f 35f
6:30 10 11 mph 1028.2mb 42f 35f
6:24 8 10 mph 1028.3mb 42f 35f
6:18 6 9 mph 1028.4mb 42f 35f
6:12 8 10 mph 1028.3mb 42f 35f
6:06 9 11 mph 1028.2mb 42f 35f
6:00 9 10 mph 1028.1mb 43f 35f
5:54 9 10 mph 1028.1mb 43f 35f
5:48 8 11 mph 1028.1mb 43f 35f
5:42 7 11 mph 1028mb 43f 35f
5:36 9 10 mph 1027.9mb 43f 35f
5:30 8 10 mph 1027.9mb 43f 35f
5:24 8 10 mph 1027.7mb 43f 35f
5:18 9 11 mph 1027.6mb 43f 35f
5:12 10 11 mph 1027.6mb 43f 35f
5:06 7 9 mph 1027.6mb 43f 35f
5:00 7 9 mph 1027.6mb 43f 35f
4:54 8 9 mph 1027.5mb 43f 35f
4:48 8 11 mph 1027.4mb 43f 35f
4:42 7 10 mph 1027.4mb 43f 35f
4:36 8 11 mph 1027.3mb 43f 35f
4:30 9 10 mph 1027.2mb 43f 35f
4:24 8 10 mph 1027.1mb 43f 35f
4:18 9 11 mph 1027.1mb 43f 35f
4:12 9 10 mph 1027.1mb 43f 35f
4:06 9 11 mph 1027.2mb 43f 35f
4:00 9 11 mph 1027.2mb 43f 34f
3:54 8 10 mph 1027.2mb 43f 35f
3:48 8 10 mph 1027.1mb 43f 35f
3:42 8 10 mph 1027.1mb 43f 35f
3:36 9 10 mph 1027.1mb 43f 35f
3:30 9 11 mph 1027.2mb 43f 35f
3:24 8 11 mph 1027.3mb 43f 35f
3:18 7 9 mph 1027.4mb 43f 35f
3:12 8 9 mph 1027.4mb 43f 35f
3:06 8 9 mph 1027.4mb 43f 35f
3:00 8 10 mph 1027.4mb 44f 35f
2:54 9 10 mph 1027.3mb 44f 35f
2:48 9 10 mph 1027.4mb 44f 34f
2:42 8 10 mph 1027.5mb 44f 35f
2:36 8 9 mph 1027.6mb 44f 35f
2:30 8 9 mph 1027.6mb 44f 35f
2:24 8 9 mph 1027.6mb 44f 35f
2:18 8 10 mph 1027.6mb 44f 35f
2:12 8 9 mph 1027.6mb 44f 35f
2:06 8 9 mph 1027.6mb 43f 35f
2:00 8 9 mph 1027.6mb 43f 35f
1:54 7 9 mph 1027.6mb 43f 35f
1:48 8 10 mph 1027.6mb 43f 35f
1:42 9 11 mph 1027.5mb 43f 35f
1:36 9 11 mph 1027.6mb 43f 35f
1:30 10 11 mph 1027.6mb 43f 34f
1:24 9 11 mph 1027.6mb 43f 35f
1:18 9 11 mph 1027.5mb 43f 35f
1:06 9 11 mph 1027.4mb 43f 35f
1:00 8 10 mph 1027.3mb 43f 34f
12:54 9 10 mph 1027.3mb 43f 34f
12:48 9 10 mph 1027.2mb 43f 34f
12:42 8 10 mph 1027.3mb 43f 35f
12:36 9 10 mph 1027.3mb 43f 34f
12:30 8 10 mph 1027.3mb 43f 34f
12:24 8 11 mph 1027.3mb 43f 34f
12:18 8 11 mph 1027.3mb 43f 35f
12:12 8 11 mph 1027.3mb 43f 35f
12:06 10 13 mph 1027.3mb 43f 34f
12:00 9 11 mph 1027.4mb 43f 34f
dom 12/21 11:54 9 10 mph 1027.5mb 43f 34f
11:48 9 11 mph 1027.5mb 43f 34f
11:42 9 11 mph 1027.5mb 43f 34f
11:36 9 11 mph 1027.6mb 43f 34f
11:30 8 10 mph 1027.6mb 43f 34f
11:18 9 13 mph 1027.6mb 43f 35f
11:12 9 11 mph 1027.5mb 43f 35f
11:06 9 13 mph 1027.5mb 43f 35f
11:00 9 11 mph 1027.5mb 43f 35f
10:54 8 10 mph 1027.6mb 43f 35f
10:48 10 11 mph 1027.6mb 43f 35f
10:42 10 13 mph 1027.6mb 43f 35f
10:36 11 13 mph 1027.7mb 43f 35f
10:30 10 11 mph 1027.7mb 43f 35f
10:24 9 11 mph 1027.7mb 43f 35f
10:18 9 13 mph 1027.6mb 43f 35f
10:12 9 10 mph 1027.6mb 43f 35f
10:00 9 11 mph 1027.6mb 42f 35f
9:54 10 13 mph 1027.5mb 42f 35f
9:48 9 13 mph 1027.5mb 42f 35f
9:42 11 14 mph 1027.4mb 42f 35f
9:36 10 11 mph 1027.4mb 42f 35f
9:30 10 13 mph 1027.3mb 42f 35f
9:24 11 13 mph 1027.2mb 42f 35f
9:18 11 14 mph 1027.2mb 42f 35f
9:12 11 14 mph 1027.2mb 42f 35f
9:06 11 13 mph 1027.1mb 42f 35f
9:00 10 14 mph 1027.1mb 42f 35f
8:54 10 14 mph 1027.1mb 42f 35f
8:48 10 13 mph 1027mb 42f 35f
8:42 9 13 mph 1027mb 42f 35f
8:30 10 13 mph 1027.1mb 42f 35f
8:24 11 13 mph 1027.1mb 42f 34f
8:18 11 14 mph 1027mb 42f 34f
8:12 10 13 mph 1027mb 42f 34f
8:06 11 13 mph 1027mb 42f 34f
7:48 9 13 mph 1026.9mb 42f 34f
7:42 10 14 mph 1026.9mb 42f 34f
7:36 11 13 mph 1026.9mb 42f 34f
7:30 10 13 mph 1026.9mb 42f 34f
7:24 10 11 mph 1027mb 42f 34f
7:18 11 14 mph 1026.9mb 42f 34f
7:12 10 15 mph 1026.9mb 42f 34f
7:06 10 13 mph 1026.8mb 42f 34f
7:00 11 13 mph 1026.8mb 42f 34f
6:54 10 13 mph 1026.8mb 42f 34f
6:48 10 13 mph 1026.8mb 42f 34f
6:42 11 13 mph 1026.8mb 42f 34f
6:36 11 14 mph 1026.8mb 42f 34f
6:30 10 13 mph 1026.7mb 42f 34f
6:24 10 14 mph 1026.7mb 42f 34f
6:18 11 14 mph 1026.6mb 42f 34f
6:12 11 13 mph 1026.6mb 43f 34f
6:06 10 13 mph 1026.6mb 43f 34f
6:00 9 11 mph 1026.5mb 43f 34f
5:54 9 11 mph 1026.6mb 43f 34f
5:48 9 11 mph 1026.5mb 43f 34f
5:42 9 11 mph 1026.4mb 43f 34f
5:36 8 10 mph 1026.4mb 43f 34f
5:30 7 10 mph 1026.5mb 43f 34f
5:24 8 10 mph 1026.4mb 43f 34f
5:18 8 10 mph 1026.4mb 43f 34f
5:12 8 10 mph 1026.2mb 43f 34f
5:06 9 13 mph 1026.1mb 43f 34f
5:00 10 13 mph 1026mb 43f 34f
4:54 10 13 mph 1026mb 43f 34f
4:48 9 13 mph 1025.9mb 43f 34f
4:42 11 13 mph 1025.8mb 43f 34f
4:36 11 14 mph 1025.8mb 43f 34f
4:30 10 14 mph 1025.8mb 43f 34f
4:24 10 14 mph 1025.8mb 43f 34f
4:18 10 14 mph 1025.8mb 43f 34f
4:12 10 14 mph 1025.7mb 43f 34f
4:06 9 14 mph 1025.7mb 43f 34f
4:00 11 14 mph 1025.6mb 43f 34f
3:54 11 15 mph 1025.6mb 43f 34f
3:48 10 13 mph 1025.6mb 43f 34f
3:42 11 13 mph 1025.6mb 43f 34f
3:36 9 13 mph 1025.6mb 43f 34f
3:30 13 14 mph 1025.5mb 43f 34f
3:24 9 13 mph 1025.5mb 43f 34f
3:18 10 14 mph 1025.6mb 43f 35f
3:12 9 13 mph 1025.5mb 43f 35f
3:06 10 13 mph 1025.5mb 43f 34f
3:00 10 13 mph 1025.5mb 43f 34f
2:54 10 14 mph 1025.5mb 43f 35f
2:48 11 13 mph 1025.5mb 43f 35f
2:42 9 13 mph 1025.5mb 43f 35f
2:36 9 13 mph 1025.5mb 43f 34f
2:30 10 11 mph 1025.5mb 43f 34f
2:24 10 13 mph 1025.5mb 43f 34f
2:18 11 13 mph 1025.4mb 43f 34f
2:12 10 11 mph 1025.4mb 43f 34f
2:06 10 13 mph 1025.4mb 43f 35f
2:00 10 11 mph 1025.3mb 43f 34f
1:54 11 14 mph 1025.3mb 43f 35f
1:48 10 14 mph 1025.2mb 43f 35f
1:42 11 16 mph 1025.1mb 43f 34f
1:36 11 14 mph 1025.1mb 43f 34f
1:30 13 14 mph 1025mb 43f 34f
1:24 11 14 mph 1025mb 43f 35f
1:18 13 17 mph 1025mb 43f 34f
1:12 13 16 mph 1025mb 43f 34f
1:06 14 16 mph 1024.9mb 43f 34f
1:00 14 15 mph 1024.8mb 43f 34f
12:54 13 15 mph 1024.9mb 43f 34f
12:48 13 16 mph 1025mb 43f 34f
12:42 13 15 mph 1024.9mb 43f 34f
12:36 13 15 mph 1024.9mb 43f 34f
12:30 10 14 mph 1024.9mb 43f 34f
12:24 11 14 mph 1025mb 43f 34f
12:18 13 14 mph 1025mb 43f 34f
12:12 9 14 mph 1025mb 43f 34f
12:06 11 15 mph 1025.1mb 43f 34f
12:00 13 15 mph 1025.1mb 43f 34f
11:54 11 14 mph 1025.1mb 43f 34f
11:48 11 14 mph 1025.2mb 43f 34f
11:42 11 14 mph 1025.2mb 43f 34f
11:36 13 15 mph 1025.3mb 43f 34f
11:30 13 14 mph 1025.4mb 43f 35f
11:24 13 17 mph 1025.5mb 43f 34f
11:18 14 16 mph 1025.5mb 43f 34f
11:12 11 14 mph 1025.6mb 43f 34f
11:06 14 15 mph 1025.7mb 43f 34f
10:54 15 16 mph 1025.8mb 43f 34f
10:48 11 16 mph 1025.9mb 43f 35f
10:42 13 15 mph 1025.9mb 43f 34f
10:36 15 18 mph 1026mb 43f 34f
10:30 14 17 mph 1026mb 43f 34f
10:24 14 16 mph 1026.1mb 42f 35f
10:18 14 17 mph 1026.1mb 42f 35f
10:12 15 17 mph 1026.1mb 42f 34f
10:06 13 14 mph 1026.2mb 42f 35f
10:00 11 14 mph 1026.2mb 42f 35f
9:54 11 15 mph 1026.2mb 42f 35f
9:48 11 14 mph 1026.3mb 42f 34f
9:42 11 14 mph 1026.3mb 42f 35f
9:36 11 13 mph 1026.2mb 42f 34f
9:24 11 14 mph 1026.1mb 42f 35f
9:18 11 16 mph 1026.1mb 42f 34f
9:12 11 15 mph 1026mb 42f 34f
9:06 11 14 mph 1025.9mb 42f 34f
9:00 10 13 mph 1025.9mb 42f 34f
8:54 11 14 mph 1025.9mb 42f 34f
8:42 10 14 mph 1025.8mb 42f 34f
8:36 11 14 mph 1025.6mb 42f 34f
8:30 11 15 mph 1025.5mb 42f 34f
8:24 13 14 mph 1025.5mb 42f 34f
8:18 13 14 mph 1025.4mb 42f 34f
8:12 13 15 mph 1025.4mb 42f 34f
8:06 11 14 mph 1025.4mb 42f 34f
8:00 13 15 mph 1025.3mb 43f 34f
7:54 14 15 mph 1025.3mb 43f 34f
7:48 14 17 mph 1025.3mb 43f 34f
7:42 14 16 mph 1025.3mb 43f 34f
7:36 14
mph
1025.4mb 43f 34f
7:30 13 15 mph 1025.4mb 43f 34f
7:24 11 14 mph 1025.5mb 43f 34f
7:18 11 14 mph 1025.5mb 43f 34f
7:12 11 14 mph 1025.4mb 43f 34f
7:06 11 13 mph 1025.3mb 43f 34f
7:00 10 13 mph 1025.3mb 43f 34f
6:54 10 11 mph 1025.2mb 43f 34f
6:48 9 11 mph 1025.3mb 43f 34f
6:42 9 10 mph 1025.2mb 43f 34f
6:36 9 10 mph 1025.2mb 43f 34f
6:30 9 11 mph 1025.2mb 43f 34f
6:24 9 10 mph 1025.1mb 43f 34f
6:18 8 10 mph 1025mb 43f 34f
6:12 8 10 mph 1025.1mb 43f 34f
6:06 9 11 mph 1025.1mb 43f 34f
6:00 8 10 mph 1025.1mb 43f 34f
5:54 7 10 mph 1025.1mb 43f 34f
5:48 8 10 mph 1025mb 43f 34f
5:42 8 11 mph 1024.9mb 43f 34f
5:36 9 10 mph 1024.8mb 43f 34f
5:30 8 9 mph 1024.7mb 43f 34f
5:24 8 9 mph 1024.7mb 43f 34f
5:18 8 10 mph 1024.7mb 43f 34f
5:06 7 8 mph 1024.6mb 43f 34f
5:00 7 8 mph 1024.5mb 43f 34f
4:54 8 9 mph 1024.5mb 43f 34f
4:48 7 9 mph 1024.5mb 43f 34f
4:42 6 7 mph 1024.7mb 43f 34f
4:36 6 8 mph 1024.6mb 43f 34f
4:30 6 7 mph 1024.6mb 43f 34f
4:24 6 10 mph 1024.5mb 43f 34f
4:18 8 11 mph 1024.5mb 43f 34f
4:12 10 13 mph 1024.3mb 43f 34f
4:06 11 14 mph 1024.3mb 43f 34f
4:00 11 13 mph 1024.3mb 43f 33f
3:54 9 10 mph 1024.5mb 43f 33f
3:48 9 11 mph 1024.5mb 43f 33f
3:42 10 11 mph 1024.6mb 43f 33f
3:36 10 13 mph 1024.6mb 43f 34f
3:30 10 11 mph 1024.7mb 43f 34f
3:24 10 11 mph 1024.7mb 43f 34f
3:18 10 11 mph 1024.8mb 43f 34f
3:12 10 11 mph 1024.8mb 43f 34f
3:06 10 11 mph 1024.8mb 43f 34f
3:00 9 11 mph 1024.8mb 43f 33f
2:54 9 11 mph 1024.8mb 43f 34f
2:48 9 13 mph 1024.8mb 43f 34f
2:42 10 13 mph 1024.8mb 43f 34f
2:36 10 11 mph 1024.9mb 43f 34f
2:30 10 13 mph 1024.9mb 43f 34f
2:24 10 13 mph 1025mb 43f 34f
2:18 10 13 mph 1024.9mb 43f 34f
2:12 10 14 mph 1024.9mb 43f 34f
2:06 10 13 mph 1024.9mb 43f 34f
1:54 10 13 mph 1024.9mb 43f 34f
1:48  -  mph 1024.9mb - -
1:42 10 13 mph 1024.9mb - 34f
1:36 9 11 mph 1024.8mb - 34f
1:30 9 13 mph 1024.7mb 43f 34f
1:24 10 13 mph 1024.6mb 43f 34f
1:18 13 14 mph 1024.6mb 43f 34f
1:12 13 15 mph 1024.6mb 43f 34f
1:06 11 14 mph 1024.6mb 43f 34f
1:00 11 14 mph 1024.5mb 43f 34f
12:54 11 13 mph 1024.6mb 43f 34f
12:48 10 13 mph 1024.5mb 43f 34f
12:42 10 11 mph 1024.5mb 43f 34f
12:36 9 11 mph 1024.5mb 43f 34f
12:30 9 11 mph 1024.5mb 43f 34f
12:24 10 11 mph 1024.6mb 43f 34f
12:18 9 11 mph 1024.6mb 43f 34f
12:12 9 10 mph 1024.7mb 43f 34f
12:06 9 10 mph 1024.8mb 43f 34f
12:00 8 10 mph 1024.9mb 43f 34f
sáb 12/20 11:54 8 9 mph 1024.9mb 43f 34f
11:48 8 10 mph 1025mb 43f 34f
11:42 8 10 mph 1025mb 43f 34f
11:36 8 10 mph 1025mb 43f 34f
11:30 9 10 mph 1025mb 43f 34f
11:24 9 10 mph 1025mb 43f 34f
11:18 8 10 mph 1025mb 43f 34f
11:12 9 11 mph 1025.1mb 43f 34f
11:06 9 11 mph 1025mb 43f 34f
11:00 9 11 mph 1025.1mb 43f 34f
10:54 10 11 mph 1025.2mb 43f 34f
10:42 9 11 mph 1025.3mb 43f 34f
10:36 10 11 mph 1025.3mb 43f 34f
10:30 10 13 mph 1025.3mb 43f 34f
10:24 10 11 mph 1025.3mb 43f 34f
10:12 10 13 mph 1025.2mb 42f 33f
10:06 11 14 mph 1025.1mb 42f 33f
10:00 11 14 mph 1025.1mb 42f 33f
9:54 11 14 mph 1025.1mb 42f 33f
9:48 10 13 mph 1025.1mb 42f 34f
9:36 11 13 mph 1025.2mb 42f 33f
9:30 11 14 mph 1025.2mb 42f 33f
9:24 11 14 mph 1025.2mb 42f 33f
9:18 13 14 mph 1025.2mb 42f 33f
9:12 14 15 mph 1025.1mb 42f 33f
9:06 13 14 mph 1025.1mb 42f 33f
9:00 13 15 mph 1025.1mb 42f 33f
8:54 13 15 mph 1025.2mb 42f 33f
8:48 13 15 mph 1025.2mb 42f 33f
8:42 13 14 mph 1025.2mb 42f 33f
8:30 14 15 mph 1025.2mb 42f 33f
8:24 14 15 mph 1025.2mb 42f 33f
8:18 14 15 mph 1025.2mb 42f 33f
8:12 14 15 mph 1025.3mb 42f 33f
8:06 13 15 mph 1025.2mb 42f 33f
7:54 13 15 mph 1025.3mb 42f 33f
7:48 14 16 mph 1025.3mb 42f 33f
7:42 13 16 mph 1025.4mb 42f 33f
7:36 13 14 mph 1025.4mb 42f 33f
7:30 11 14 mph 1025.5mb 42f 33f
7:24 13 14 mph 1025.5mb 43f 33f
7:18 13 15 mph 1025.5mb 43f 33f
7:12 10 11 mph 1025.5mb 43f 33f
7:06 10 13 mph 1025.5mb 43f 33f
7:00 10 13 mph 1025.5mb 43f 33f
6:54 10 13 mph 1025.5mb 43f 33f
6:48 10 14 mph 1025.4mb 43f 33f
6:42 10 13 mph 1025.4mb 43f 34f
6:36 11 14 mph 1025.3mb 43f 33f
6:30 10 14 mph 1025.2mb 43f 33f
6:24 10 13 mph 1025.2mb 43f 33f
6:18 11 14 mph 1025.1mb 43f 33f
6:12 9 13 mph 1025.1mb 43f 33f
6:06 11 14 mph 1025.1mb 43f 33f
5:54 13 15 mph 1025mb 43f 34f
5:48 11 14 mph 1025mb 43f 34f
5:42 10 13 mph 1024.9mb 43f 34f
5:36 13 14 mph 1024.9mb 43f 34f
5:30 11 14 mph 1024.9mb 43f 34f
5:24 10 13 mph 1024.8mb 43f 34f
5:18 10 14 mph 1024.8mb 43f 35f
5:12 10 13 mph 1024.7mb 43f 35f
5:06 10 13 mph 1024.7mb 43f 34f
5:00 10 14 mph 1024.7mb 44f 35f
4:54 11 14 mph 1024.6mb 44f 34f
4:48 11 14 mph 1024.5mb 44f 34f
4:42 13 14 mph 1024.4mb 44f 34f
4:36 11 15 mph 1024.4mb 44f 34f
4:30 10 13 mph 1024.5mb 44f 35f
4:24 11 13 mph 1024.4mb 44f 35f
4:18 10 13 mph 1024.4mb 44f 35f
4:12 10 13 mph 1024.4mb 43f 35f
4:06 11 14 mph 1024.4mb 43f 35f
4:00 11 13 mph 1024.3mb 43f 35f
3:54 10 13 mph 1024.4mb 43f 35f
3:48 10 13 mph 1024.4mb 43f 35f
3:36 11 14 mph 1024.3mb 43f 35f
3:30 11 14 mph 1024.2mb 43f 35f
3:24 14 15 mph 1024.2mb 43f 35f
3:18 14 16 mph 1024.1mb 43f 35f
3:12 10 13 mph 1024.1mb 43f 35f
3:06 8 11 mph 1024.2mb 43f 36f
3:00 11 13 mph 1024.2mb 43f 36f
2:54 10 13 mph 1024.2mb 43f 36f
2:48 10 11 mph 1024.2mb 43f 36f
2:42 9 13 mph 1024.3mb 43f 36f
2:36 9 11 mph 1024.4mb 43f 36f
2:30 9 13 mph 1024.3mb 43f 36f
2:24 10 13 mph 1024.3mb 43f 36f
2:18 11 13 mph 1024.2mb 43f 36f
2:12 10 13 mph 1024.3mb 43f 36f
2:06 11 14 mph 1024.2mb 43f 36f
2:00 13 15 mph 1024.1mb 43f 36f
1:54 15 16 mph 1024mb 43f 36f
1:48 14 15 mph 1024mb 43f 36f
1:42 11 15 mph 1024.1mb 43f 36f
1:36 13 15 mph 1024mb 43f 36f
1:24 10 14 mph 1024mb 43f 36f
1:18 10 13 mph 1024mb 43f 36f
1:12 10 13 mph 1024mb 43f 36f
1:06 9 13 mph 1024mb 43f 36f
1:00 10 14 mph 1024mb 43f 36f
12:54 13 14 mph 1024mb 43f 35f
12:48 13 14 mph 1024mb 43f 35f
12:42 13 15 mph 1024mb 43f 36f
12:36 13 16 mph 1024mb 43f 36f
12:30 14 16 mph 1024mb 43f 35f
12:24 13 15 mph 1023.9mb 43f 35f
12:18 14 15 mph 1023.9mb 43f 35f
12:12 13 14 mph 1024mb 43f 35f
12:06 10 13 mph 1024mb 43f 35f
12:00 13 15 mph 1024mb 43f 35f
11:54 14 15 mph 1024mb 43f 35f
11:48 13 15 mph 1024mb 43f 35f
11:42 13 14 mph 1024mb 43f 34f
11:36 13 15 mph 1024.1mb 43f 34f
11:30 11 14 mph 1024.2mb 43f 34f
11:24 13 14 mph 1024.2mb 43f 34f
11:18 13 14 mph 1024.3mb 43f 34f
11:12 10 11 mph 1024.4mb 43f 34f
11:06 9 11 mph 1024.5mb 43f 34f
11:00 9 10 mph 1024.7mb 43f 34f
10:54 8 10 mph 1024.7mb 43f 34f
10:48 8
mph
1024.8mb 43f 34f
10:42 7 10 mph 1024.8mb 43f 34f
10:36 7 10 mph 1024.8mb 43f 34f
10:30 8 10 mph 1024.9mb 43f 33f
10:24 8 13 mph 1024.9mb 43f 33f
10:18 10 11 mph 1024.9mb 43f 33f
10:12 10 14 mph 1025mb 43f 33f
10:06 11 14 mph 1025mb 43f 33f
10:00 9 11 mph 1025.1mb 43f 33f
9:54 10 15 mph 1025.1mb 43f 32f
9:48 11 14 mph 1025mb 43f 32f
9:42 11 15 mph 1025mb 43f 32f
9:36 11 15 mph 1025mb 43f 32f
9:30 13 16 mph 1025mb 43f 32f
9:24 14 16 mph 1024.9mb 43f 32f
9:12 14 16 mph 1024.9mb 43f 32f
9:06 13 14 mph 1025.1mb 43f 32f
9:00 10 13 mph 1025.1mb 43f 31f
8:54 10 13 mph 1025.1mb 43f 32f
8:48 9 11 mph 1025.1mb 43f 31f
8:42 9 11 mph 1025.1mb 43f 31f
8:36 7 10 mph 1025.1mb 43f 31f
8:30 8 11 mph 1025.1mb 43f 31f
8:24 7 9 mph 1025mb 43f 31f
8:18 8 10 mph 1024.9mb 43f 31f
8:12 8 13 mph 1024.9mb 42f 31f
8:06 10 13 mph 1024.8mb 42f 31f
8:00 10 14 mph 1024.7mb 42f 31f
7:54 10 13 mph 1024.7mb 42f 31f
7:48 10 13 mph 1024.6mb 42f 31f
7:42 11 13 mph 1024.5mb 42f 31f
7:36 11 14 mph 1024.4mb 42f 31f
7:30 10 14 mph 1024.3mb 42f 31f
7:24 9 11 mph 1024.2mb 42f 31f
7:18 10 13 mph 1024.2mb 43f 31f
7:12 10 13 mph 1024.1mb 43f 31f
7:00 8 10 mph 1024mb 43f 31f
6:54 8 11 mph 1023.9mb 43f 31f
6:48 8 10 mph 1023.9mb 43f 31f
6:42 7 9 mph 1023.9mb 43f 31f
6:36 7 10 mph 1023.8mb 43f 31f
6:30 8 11 mph 1023.7mb 43f 30f
6:24 9 11 mph 1023.6mb 43f 30f
6:18 9 11 mph 1023.5mb 43f 30f
6:12 8 11 mph 1023.4mb 43f 31f
6:06 9 11 mph 1023.3mb 43f 30f
6:00 8 10 mph 1023.2mb 43f 30f
5:48 9 10 mph 1023mb 43f 30f
5:42 8 10 mph 1022.9mb 43f 30f
5:36 8 10 mph 1022.8mb 43f 30f
5:30 8 10 mph 1022.7mb 43f 31f
5:24 9 11 mph 1022.6mb 43f 30f
5:18 8 13 mph 1022.6mb 43f 30f
5:12 9 13 mph 1022.5mb 43f 30f
5:06 8 9 mph 1022.6mb 43f 31f
5:00 9 10 mph 1022.5mb 43f 30f
4:54 9 10 mph 1022.4mb 43f 30f
4:48 8 10 mph 1022.3mb 44f 30f
4:42 8 11 mph 1022.3mb 44f 30f
4:36 9 11 mph 1022.1mb 44f 30f
4:30 8 11 mph 1022.1mb 44f 30f
4:24 9 13 mph 1022mb 44f 30f
4:18 11 13 mph 1022mb 44f 30f
4:12 10 13 mph 1021.9mb 44f 30f
4:06 10 11 mph 1021.9mb 43f 30f
4:00 9 11 mph 1021.9mb 43f 30f
3:54 9 13 mph 1021.8mb 43f 30f
3:48 9 13 mph 1021.9mb 43f 30f
3:42 10 13 mph 1021.8mb 43f 30f
3:36 10 13 mph 1021.8mb 43f 30f
3:30 10 13 mph 1021.7mb 43f 30f
3:24 11 14 mph 1021.6mb 43f 30f
3:18 14 15 mph 1021.6mb 43f 30f
3:12 11 14 mph 1021.6mb 43f 30f
3:06 11 14 mph 1021.6mb 43f 30f
2:54 13 15 mph 1021.7mb 43f 30f
2:48 13 15 mph 1021.7mb 43f 30f
2:42 13 15 mph 1021.7mb 43f 30f
2:36 13 14 mph 1021.8mb 43f 30f
2:30 10 13 mph 1021.8mb 43f 30f
2:24 11 13 mph 1021.8mb 43f 30f
2:18 10 11 mph 1021.7mb 43f 30f
2:12 8 10 mph 1021.8mb 43f 31f
2:06 8 10 mph 1021.7mb 43f 31f
2:00 9 13 mph 1021.6mb 44f 31f
1:54 10 13 mph 1021.6mb 44f 31f
1:48 11 15 mph 1021.6mb 44f 31f
1:42 11 15 mph 1021.6mb 44f 31f
1:36 11 13 mph 1021.6mb 44f 31f
1:30 9 14 mph 1021.5mb 44f 31f
1:24 10 11 mph 1021.4mb 44f 31f
1:18 11 14 mph 1021.3mb 44f 31f
1:12 11 14 mph 1021.2mb 44f 31f
1:06 11 14 mph 1021.2mb 44f 31f
12:54 9 10 mph 1021.1mb 44f 31f
12:48 8 10 mph 1021.1mb 44f 32f
12:42 10 11 mph 1021mb 44f 32f
12:36 10 11 mph 1020.9mb 44f 32f
12:30 9 11 mph 1020.9mb 44f 32f
12:24 9 10 mph 1020.8mb 44f 32f
12:18 8 11 mph 1020.7mb 44f 32f
12:12 9 11 mph 1020.7mb 44f 32f
12:06 8 10 mph 1020.7mb 43f 32f
12:00 8 10 mph 1020.6mb 43f 32f
vie 12/19 11:54 8 9 mph 1020.6mb 43f 32f
11:48 7 9 mph 1020.6mb 43f 32f
11:36 6 7 mph 1020.6mb 43f 32f
11:30 6 7 mph 1020.5mb 43f 32f
11:24 7 8 mph 1020.4mb 43f 32f
11:18 6 8 mph 1020.4mb 43f 32f
11:12 7 8 mph 1020.3mb 43f 32f
11:06 7 8 mph 1020.3mb 43f 32f
11:00 7 9 mph 1020.2mb 43f 33f
10:54 7 8 mph 1020.3mb 43f 33f
10:48 8 10 mph 1020.1mb 43f 33f
10:42 9 11 mph 1020mb 43f 33f
10:36 10 11 mph 1020mb 43f 33f
10:30 10 13 mph 1020mb 43f 33f
10:24 9 11 mph 1019.9mb 43f 33f
10:18 9 13 mph 1019.9mb 43f 34f
10:12 10 13 mph 1019.8mb 43f 34f
10:06 10 13 mph 1019.9mb 43f 34f
10:00 10 13 mph 1019.9mb 43f 34f
9:54 9 10 mph 1019.8mb 43f 34f
9:48 9 10 mph 1019.8mb 43f 34f
9:42 8 11 mph 1019.8mb 43f 34f
9:36 8 10 mph 1019.7mb 44f 34f
9:30 8 10 mph 1019.7mb 43f 34f
9:24 8 10 mph 1019.7mb 43f 34f
9:18 8 9 mph 1019.7mb 44f 34f
9:12 8 10 mph 1019.7mb 44f 34f
9:06 8 10 mph 1019.6mb 44f 34f
9:00 8 10 mph 1019.6mb 44f 34f
8:54 9 10 mph 1019.5mb 44f 34f
8:48 8 11 mph 1019.5mb 44f 35f
8:42 9 11 mph 1019.4mb 44f 34f
8:36 10 13 mph 1019.3mb 44f 34f
8:30 8 9 mph 1019.3mb 44f 34f
8:24 8 11 mph 1019.2mb 44f 34f
8:18 8 11 mph 1019.1mb 44f 34f
8:12 8 11 mph 1019mb 44f 35f
8:06 10 13 mph 1018.9mb 44f 35f
8:00 10 11 mph 1018.8mb 44f 35f
7:54 10 14 mph 1018.7mb 44f 35f
7:48 10 13 mph 1018.7mb 44f 35f
7:42 11 16 mph 1018.6mb 44f 35f
7:36 13 14 mph 1018.5mb 43f 34f
7:30 10 15 mph 1018.5mb 43f 35f
7:24 11 14 mph 1018.4mb 43f 35f
7:12 13 16 mph 1018.4mb 43f 35f
7:06 13 16 mph 1018.4mb 43f 35f
7:00 13 16 mph 1018.3mb 43f 35f
6:54 14 15 mph 1018.3mb 43f 35f
6:48 11 17 mph 1018.2mb 43f 35f
6:42 14 17 mph 1018mb 43f 35f
6:36 15 18 mph 1017.9mb 43f 35f
6:30 13 18 mph 1017.7mb 43f 35f
6:24 15 18 mph 1017.6mb 43f 35f
6:18 15 18 mph 1017.4mb 43f 35f
6:12 14 16 mph 1017.4mb 43f 35f
6:06 14 17 mph 1017.3mb 43f 35f
6:00 14 16 mph 1017.1mb 43f 35f
5:54 14 15 mph 1017.1mb 43f 35f
5:48 14 16 mph 1017.1mb 44f 35f
5:36 14 16 mph 1017mb 44f 35f
5:30 14 16 mph 1017mb 44f 35f
5:24 14 16 mph 1016.9mb 44f 35f
5:18 13 15 mph 1016.8mb 44f 35f
5:12 14 16 mph 1016.8mb 44f 35f
5:06 14 16 mph 1016.7mb 44f 35f
5:00 14 17 mph 1016.6mb 44f 35f
4:54 14 18 mph 1016.5mb 44f 35f
4:48 15 16 mph 1016.4mb 44f 35f
4:42 16 18 mph 1016.3mb 44f 35f
4:36 16 18 mph 1016.3mb 44f 35f
4:30 17 18 mph 1016.3mb 44f 35f
4:24 18 22 mph 1016.2mb 44f 35f
4:18 16 20 mph 1016.1mb 44f 36f
4:12 16 20 mph 1016mb 44f 35f
4:06 20 22 mph 1016mb 44f 35f
4:00 20 23 mph 1015.9mb 44f 35f
3:54 22 24 mph 1015.8mb 44f 35f
3:48 17 22 mph 1015.8mb 44f 36f
3:42 18 22 mph 1015.7mb 44f 35f
3:36 20 22 mph 1015.6mb 44f 36f
3:30 20 22 mph 1015.5mb 44f 36f
3:24 18 22 mph 1015.3mb 44f 36f
3:18 16 22 mph 1015.3mb 44f 36f
3:12 17 20 mph 1015.1mb 44f 36f
3:06 18 22 mph 1015.1mb 44f 36f
3:00 16 20 mph 1015.1mb 44f 36f
2:54 15 21 mph 1015.1mb 44f 36f
2:48 16 20 mph 1015mb 44f 36f
2:42 14 16 mph 1014.9mb 44f 36f
2:36 16 20 mph 1014.7mb 44f 36f
2:30 18 22 mph 1014.6mb 44f 36f
2:24 17 21 mph 1014.6mb 44f 36f
2:18 16 20 mph 1014.5mb 44f 36f
2:12 17 22 mph 1014.5mb 44f 36f
2:06 20 21 mph 1014.4mb 44f 36f
2:00 15 17 mph 1014.3mb 44f 36f
1:54 15 17 mph 1014.3mb 44f 36f
1:48 15 18 mph 1014.2mb 44f 36f
1:42 14 18 mph 1014.1mb 44f 36f
1:36 14 17 mph 1014.1mb 44f 36f
1:30 15 22 mph 1014mb 44f 36f
1:24 15 17 mph 1013.9mb 44f 36f
1:18 15 17 mph 1013.9mb 44f 36f
1:12 15 17 mph 1013.9mb 44f 36f
1:06 17 21 mph 1013.8mb 44f 36f
1:00 16 18 mph 1013.9mb 44f 36f
12:54 14 17 mph 1013.9mb 44f 36f
12:48 14 17 mph 1014mb 43f 36f
12:42 13 21 mph 1014mb 43f 36f
12:36 18 22 mph 1014mb 43f 36f
12:30 15 17 mph 1014mb 43f 36f
12:24 13 20 mph 1014mb 43f 36f
12:18 17 18 mph 1014mb 43f 36f
12:12 18 21 mph 1014.1mb 43f 36f
12:06 15 18 mph 1014.2mb 43f 36f
12:00 15 17 mph 1014.2mb 43f 36f
11:54 14 17 mph 1014.2mb 43f 36f
11:48 13 21 mph 1014.2mb 43f 36f
11:42 16 18 mph 1014.1mb 43f 36f
11:36 14 18 mph 1014.2mb 43f 36f
11:30 11 17 mph 1014.2mb 44f 36f
11:24 15 20 mph 1014.2mb 44f 36f
11:18 15 18 mph 1014.3mb 44f 36f
11:12 16 21 mph 1014.3mb 44f 36f
11:06 18 21 mph 1014.3mb 44f 36f
11:00 16 20 mph 1014.4mb 44f 36f
10:54 15 17 mph 1014.4mb 44f 36f
10:48 16 18 mph 1014.4mb 44f 36f
10:42 16 20 mph 1014.4mb 44f 36f
10:36 17 21 mph 1014.4mb 44f 36f
10:30 16 18 mph 1014.5mb 44f 36f
10:24 16 20 mph 1014.6mb 44f 36f
10:18 16 20 mph 1014.6mb 43f 36f
10:12 17 20 mph 1014.6mb 43f 36f
10:06 16 22 mph 1014.6mb 43f 36f
10:00 16 18 mph 1014.6mb 43f 36f
9:54 18 21 mph 1014.6mb 43f 36f
9:48 18 22 mph 1014.6mb 43f 36f
9:42 18 22 mph 1014.6mb 43f 36f
9:36 17 22 mph 1014.5mb 43f 36f
9:30 17 22 mph 1014.4mb 43f 36f
9:24 20 23 mph 1014.3mb 43f 36f
9:18 18 22 mph 1014.3mb 43f 36f
9:12 17 21 mph 1014.3mb 44f 36f
9:06 18 23 mph 1014.2mb 44f 36f
9:00 17 22 mph 1014.1mb 44f 36f
8:54 18 21 mph 1014mb 44f 36f
8:48 15 21 mph 1013.9mb 44f 36f
8:42 15 18 mph 1014mb 44f 36f
8:30 15 18 mph 1013.9mb 44f 36f
8:24 13 16 mph 1013.9mb 44f 36f
8:18 14 17 mph 1013.8mb 44f 36f
8:12 14 17 mph 1013.7mb 44f 36f
8:06 14 16 mph 1013.7mb 44f 36f
8:00 16 18 mph 1013.6mb 44f 36f
7:54 14 16 mph 1013.5mb 44f 36f
7:48 14 15 mph 1013.5mb 44f 36f
7:42 13 15 mph 1013.5mb 44f 36f
7:36 11 15 mph 1013.4mb 44f 36f
7:30 14 15 mph 1013.3mb 44f 36f
7:24 11 15 mph 1013.3mb 44f 36f
7:18 10 13 mph 1013.2mb 44f 35f
7:12 11 13 mph 1013.2mb 44f 35f
7:06 11 14 mph 1013.1mb 44f 35f
7:00 13 15 mph 1013mb 44f 35f
6:54 11 15 mph 1013mb 44f 35f
6:48 11 15 mph 1012.9mb 44f 35f
6:42 11 14 mph 1012.9mb 44f 35f
6:36 10 13 mph 1012.9mb 44f 35f
6:30 10 15 mph 1012.8mb 44f 35f
6:24 10 15 mph 1012.7mb 44f 35f
6:18 13 17 mph 1012.6mb 44f 35f
6:12 15 21 mph 1012.6mb 44f 35f
6:06 14 20 mph 1012.5mb 44f 35f
6:00 14 17 mph 1012.4mb 44f 35f
5:48 15 20 mph 1012.3mb 44f 36f
5:42 18 21 mph 1012.2mb 44f 35f
5:36 16 21 mph 1012.1mb 44f 35f
5:30 15 17 mph 1012.1mb 44f 35f
5:24 14 17 mph 1012.1mb 44f 35f
5:18 11 15 mph 1012.2mb 44f 35f
5:12 13 16 mph 1012.2mb 44f 36f
5:06 13 17 mph 1012.2mb 44f 36f
5:00 14 17 mph 1012.1mb 44f 36f
4:54 15 17 mph 1012.1mb 44f 36f
4:48 14 17 mph 1012mb 44f 36f
4:42 15 18 mph 1012mb 44f 36f
4:36 16 20 mph 1012mb 44f 36f
4:30 15 18 mph 1011.9mb 44f 36f
4:24 15 18 mph 1012mb 44f 36f
4:18 15 17 mph 1011.9mb 44f 36f
4:12 14 17 mph 1011.9mb 44f 36f
4:06 15 16 mph 1012mb 44f 36f
4:00 15 18 mph 1012mb 44f 36f
3:48 14 16 mph 1012mb 44f 36f
3:42 14 16 mph 1011.9mb 44f 36f
3:36 13 16 mph 1011.9mb 44f 36f
3:30 14 16 mph 1012mb 44f 36f
3:24 14 16 mph 1012mb 44f 36f
3:18 14 16 mph 1012mb 44f 36f
3:12 15 17 mph 1012mb 44f 36f
3:00 16 18 mph 1011.9mb 44f 36f
2:54 15 20 mph 1012mb 44f 36f
2:48 14 16 mph 1012mb 44f 37f
2:42 16 20 mph 1011.9mb 44f 37f
2:36 16 18 mph 1011.9mb 44f 36f
2:30 15 17 mph 1011.8mb 44f 36f
2:24 15 18 mph 1011.9mb 44f 37f
2:18 14 17 mph 1011.9mb 44f 37f
2:12 14 17 mph 1012mb 44f 37f
2:06 13 16 mph 1011.9mb 44f 37f
2:00 13 15 mph 1011.9mb 44f 37f
1:54 15 17 mph 1011.9mb 44f 37f
1:48 13 15 mph 1012mb 44f 37f
1:42 13 16 mph 1011.9mb 44f 37f
1:36 11 16 mph 1011.9mb 44f 37f
1:30 11 16 mph 1011.9mb 44f 37f
1:24 11 13 mph 1011.9mb 44f 37f
1:18 9 10 mph 1012mb 44f 37f